sensor_id;sensor_type;location;lat;lon;timestamp;P1;durP1;ratioP1;P2;durP2;ratioP2
19776;SDS011;10047;42.490;26.012;2022-11-20T00:01:42;25.90;;;11.88;;
19776;SDS011;10047;42.490;26.012;2022-11-20T00:04:08;23.92;;;11.57;;
19776;SDS011;10047;42.490;26.012;2022-11-20T00:06:35;26.55;;;12.68;;
19776;SDS011;10047;42.490;26.012;2022-11-20T00:09:00;24.80;;;11.75;;
19776;SDS011;10047;42.490;26.012;2022-11-20T00:11:26;27.52;;;11.10;;
19776;SDS011;10047;42.490;26.012;2022-11-20T00:13:54;23.10;;;10.20;;
19776;SDS011;10047;42.490;26.012;2022-11-20T00:16:22;26.15;;;11.93;;
19776;SDS011;10047;42.490;26.012;2022-11-20T00:18:49;26.52;;;10.65;;
19776;SDS011;10047;42.490;26.012;2022-11-20T00:21:16;19.85;;;11.02;;
19776;SDS011;10047;42.490;26.012;2022-11-20T00:23:44;21.85;;;10.68;;
19776;SDS011;10047;42.490;26.012;2022-11-20T00:26:10;26.80;;;11.27;;
19776;SDS011;10047;42.490;26.012;2022-11-20T00:28:37;20.95;;;10.82;;
19776;SDS011;10047;42.490;26.012;2022-11-20T00:31:07;20.25;;;11.07;;
19776;SDS011;10047;42.490;26.012;2022-11-20T00:33:34;22.88;;;11.98;;
19776;SDS011;10047;42.490;26.012;2022-11-20T00:36:00;21.85;;;11.82;;
19776;SDS011;10047;42.490;26.012;2022-11-20T00:38:30;23.35;;;11.57;;
19776;SDS011;10047;42.490;26.012;2022-11-20T00:40:57;25.38;;;11.95;;
19776;SDS011;10047;42.490;26.012;2022-11-20T00:43:24;23.00;;;11.60;;
19776;SDS011;10047;42.490;26.012;2022-11-20T00:45:49;27.98;;;12.30;;
19776;SDS011;10047;42.490;26.012;2022-11-20T00:48:15;22.92;;;11.48;;
19776;SDS011;10047;42.490;26.012;2022-11-20T00:50:41;22.25;;;10.10;;
19776;SDS011;10047;42.490;26.012;2022-11-20T00:53:06;18.48;;;9.88;;
19776;SDS011;10047;42.490;26.012;2022-11-20T00:55:32;22.38;;;10.73;;
19776;SDS011;10047;42.490;26.012;2022-11-20T00:57:57;21.33;;;10.65;;
19776;SDS011;10047;42.490;26.012;2022-11-20T01:00:23;20.35;;;9.50;;
19776;SDS011;10047;42.490;26.012;2022-11-20T01:02:48;20.90;;;9.38;;
19776;SDS011;10047;42.490;26.012;2022-11-20T01:05:13;27.65;;;9.57;;
19776;SDS011;10047;42.490;26.012;2022-11-20T01:07:39;19.95;;;8.45;;
19776;SDS011;10047;42.490;26.012;2022-11-20T01:10:04;23.10;;;8.43;;
19776;SDS011;10047;42.490;26.012;2022-11-20T01:12:30;18.70;;;7.80;;
19776;SDS011;10047;42.490;26.012;2022-11-20T01:14:56;22.42;;;7.90;;
19776;SDS011;10047;42.490;26.012;2022-11-20T01:17:21;20.10;;;7.57;;
19776;SDS011;10047;42.490;26.012;2022-11-20T01:19:48;17.02;;;7.55;;
19776;SDS011;10047;42.490;26.012;2022-11-20T01:22:16;17.70;;;8.07;;
19776;SDS011;10047;42.490;26.012;2022-11-20T01:24:42;19.63;;;7.85;;
19776;SDS011;10047;42.490;26.012;2022-11-20T01:27:07;19.85;;;8.75;;
19776;SDS011;10047;42.490;26.012;2022-11-20T01:29:32;16.83;;;8.43;;
19776;SDS011;10047;42.490;26.012;2022-11-20T01:31:58;22.70;;;9.15;;
19776;SDS011;10047;42.490;26.012;2022-11-20T01:34:23;18.92;;;8.73;;
19776;SDS011;10047;42.490;26.012;2022-11-20T01:36:50;16.40;;;8.48;;
19776;SDS011;10047;42.490;26.012;2022-11-20T01:39:21;20.10;;;9.15;;
19776;SDS011;10047;42.490;26.012;2022-11-20T01:41:48;22.70;;;9.07;;
19776;SDS011;10047;42.490;26.012;2022-11-20T01:44:51;20.27;;;8.65;;
19776;SDS011;10047;42.490;26.012;2022-11-20T01:47:38;18.77;;;9.02;;
19776;SDS011;10047;42.490;26.012;2022-11-20T01:52:52;18.67;;;7.35;;
19776;SDS011;10047;42.490;26.012;2022-11-20T01:55:24;13.70;;;6.57;;
19776;SDS011;10047;42.490;26.012;2022-11-20T01:57:52;16.00;;;6.60;;
19776;SDS011;10047;42.490;26.012;2022-11-20T02:00:18;19.60;;;6.80;;
19776;SDS011;10047;42.490;26.012;2022-11-20T02:02:46;16.67;;;6.30;;
19776;SDS011;10047;42.490;26.012;2022-11-20T02:07:46;15.75;;;6.05;;
19776;SDS011;10047;42.490;26.012;2022-11-20T02:10:13;17.38;;;5.90;;
19776;SDS011;10047;42.490;26.012;2022-11-20T02:12:39;15.55;;;5.82;;
19776;SDS011;10047;42.490;26.012;2022-11-20T02:15:24;18.67;;;5.97;;
19776;SDS011;10047;42.490;26.012;2022-11-20T02:17:49;17.23;;;5.68;;
19776;SDS011;10047;42.490;26.012;2022-11-20T02:20:14;19.65;;;6.45;;
19776;SDS011;10047;42.490;26.012;2022-11-20T02:22:47;17.42;;;6.13;;
19776;SDS011;10047;42.490;26.012;2022-11-20T02:25:21;17.50;;;6.15;;
19776;SDS011;10047;42.490;26.012;2022-11-20T02:27:50;18.15;;;5.90;;
19776;SDS011;10047;42.490;26.012;2022-11-20T02:30:15;19.20;;;5.40;;
19776;SDS011;10047;42.490;26.012;2022-11-20T02:32:41;14.57;;;5.13;;
19776;SDS011;10047;42.490;26.012;2022-11-20T02:37:34;18.45;;;5.53;;
19776;SDS011;10047;42.490;26.012;2022-11-20T02:40:03;16.58;;;5.57;;
19776;SDS011;10047;42.490;26.012;2022-11-20T02:42:29;19.33;;;5.72;;
19776;SDS011;10047;42.490;26.012;2022-11-20T02:44:54;16.13;;;5.22;;
19776;SDS011;10047;42.490;26.012;2022-11-20T02:47:20;18.35;;;5.60;;
19776;SDS011;10047;42.490;26.012;2022-11-20T02:49:45;16.48;;;5.53;;
19776;SDS011;10047;42.490;26.012;2022-11-20T02:52:10;12.38;;;5.40;;
19776;SDS011;10047;42.490;26.012;2022-11-20T02:54:36;16.92;;;5.38;;
19776;SDS011;10047;42.490;26.012;2022-11-20T02:57:01;15.68;;;5.13;;
19776;SDS011;10047;42.490;26.012;2022-11-20T02:59:27;16.50;;;5.32;;
19776;SDS011;10047;42.490;26.012;2022-11-20T03:01:52;18.88;;;4.95;;
19776;SDS011;10047;42.490;26.012;2022-11-20T03:04:17;18.58;;;5.35;;
19776;SDS011;10047;42.490;26.012;2022-11-20T03:06:43;16.73;;;5.00;;
19776;SDS011;10047;42.490;26.012;2022-11-20T03:09:08;16.38;;;4.82;;
19776;SDS011;10047;42.490;26.012;2022-11-20T03:11:34;14.23;;;4.80;;
19776;SDS011;10047;42.490;26.012;2022-11-20T03:14:03;18.92;;;5.15;;
19776;SDS011;10047;42.490;26.012;2022-11-20T03:16:30;16.10;;;5.00;;
19776;SDS011;10047;42.490;26.012;2022-11-20T03:18:55;16.00;;;4.75;;
19776;SDS011;10047;42.490;26.012;2022-11-20T03:21:21;13.38;;;4.70;;
19776;SDS011;10047;42.490;26.012;2022-11-20T03:23:46;11.23;;;4.88;;
19776;SDS011;10047;42.490;26.012;2022-11-20T03:28:40;13.02;;;4.20;;
19776;SDS011;10047;42.490;26.012;2022-11-20T03:31:08;15.95;;;4.75;;
19776;SDS011;10047;42.490;26.012;2022-11-20T03:33:36;13.23;;;4.38;;
19776;SDS011;10047;42.490;26.012;2022-11-20T03:36:02;13.77;;;4.10;;
19776;SDS011;10047;42.490;26.012;2022-11-20T03:38:30;15.27;;;4.50;;
19776;SDS011;10047;42.490;26.012;2022-11-20T03:41:03;14.73;;;4.40;;
19776;SDS011;10047;42.490;26.012;2022-11-20T03:43:33;15.77;;;4.40;;
19776;SDS011;10047;42.490;26.012;2022-11-20T03:45:59;13.23;;;4.13;;
19776;SDS011;10047;42.490;26.012;2022-11-20T03:48:24;12.13;;;4.28;;
19776;SDS011;10047;42.490;26.012;2022-11-20T03:50:51;13.15;;;4.30;;
19776;SDS011;10047;42.490;26.012;2022-11-20T03:53:18;11.00;;;3.92;;
19776;SDS011;10047;42.490;26.012;2022-11-20T03:55:43;13.07;;;3.85;;
19776;SDS011;10047;42.490;26.012;2022-11-20T03:58:09;15.82;;;3.97;;
19776;SDS011;10047;42.490;26.012;2022-11-20T04:00:35;13.30;;;4.40;;
19776;SDS011;10047;42.490;26.012;2022-11-20T04:03:01;11.85;;;4.25;;
19776;SDS011;10047;42.490;26.012;2022-11-20T04:05:27;12.68;;;4.25;;
19776;SDS011;10047;42.490;26.012;2022-11-20T04:07:52;13.35;;;4.18;;
19776;SDS011;10047;42.490;26.012;2022-11-20T04:10:18;13.70;;;4.45;;
19776;SDS011;10047;42.490;26.012;2022-11-20T04:12:44;9.50;;;4.00;;
19776;SDS011;10047;42.490;26.012;2022-11-20T04:15:09;14.30;;;4.13;;
19776;SDS011;10047;42.490;26.012;2022-11-20T04:17:35;10.93;;;3.92;;
19776;SDS011;10047;42.490;26.012;2022-11-20T04:20:01;15.85;;;4.78;;
19776;SDS011;10047;42.490;26.012;2022-11-20T04:22:27;14.20;;;3.80;;
19776;SDS011;10047;42.490;26.012;2022-11-20T04:24:52;13.48;;;4.10;;
19776;SDS011;10047;42.490;26.012;2022-11-20T04:27:17;14.52;;;4.35;;
19776;SDS011;10047;42.490;26.012;2022-11-20T04:29:43;15.55;;;4.32;;
19776;SDS011;10047;42.490;26.012;2022-11-20T04:32:08;14.05;;;4.35;;
19776;SDS011;10047;42.490;26.012;2022-11-20T04:34:34;13.90;;;4.40;;
19776;SDS011;10047;42.490;26.012;2022-11-20T04:37:00;13.38;;;4.22;;
19776;SDS011;10047;42.490;26.012;2022-11-20T04:39:26;11.93;;;4.28;;
19776;SDS011;10047;42.490;26.012;2022-11-20T04:41:52;14.40;;;4.10;;
19776;SDS011;10047;42.490;26.012;2022-11-20T04:44:37;9.98;;;3.85;;
19776;SDS011;10047;42.490;26.012;2022-11-20T04:47:03;15.63;;;3.70;;
19776;SDS011;10047;42.490;26.012;2022-11-20T04:49:28;14.60;;;3.60;;
19776;SDS011;10047;42.490;26.012;2022-11-20T04:51:53;16.05;;;4.18;;
19776;SDS011;10047;42.490;26.012;2022-11-20T04:54:19;16.70;;;4.15;;
19776;SDS011;10047;42.490;26.012;2022-11-20T04:56:47;12.20;;;4.20;;
19776;SDS011;10047;42.490;26.012;2022-11-20T04:59:12;14.32;;;3.40;;
19776;SDS011;10047;42.490;26.012;2022-11-20T05:01:38;11.55;;;3.38;;
19776;SDS011;10047;42.490;26.012;2022-11-20T05:04:03;12.38;;;3.85;;
19776;SDS011;10047;42.490;26.012;2022-11-20T05:06:30;12.95;;;4.05;;
19776;SDS011;10047;42.490;26.012;2022-11-20T05:08:56;12.32;;;3.60;;
19776;SDS011;10047;42.490;26.012;2022-11-20T05:11:22;14.38;;;4.55;;
19776;SDS011;10047;42.490;26.012;2022-11-20T05:13:48;15.05;;;4.38;;
19776;SDS011;10047;42.490;26.012;2022-11-20T05:16:15;13.82;;;3.70;;
19776;SDS011;10047;42.490;26.012;2022-11-20T05:18:42;13.05;;;4.15;;
19776;SDS011;10047;42.490;26.012;2022-11-20T05:21:08;15.55;;;4.63;;
19776;SDS011;10047;42.490;26.012;2022-11-20T05:23:35;17.95;;;4.35;;
19776;SDS011;10047;42.490;26.012;2022-11-20T05:26:01;15.20;;;4.47;;
19776;SDS011;10047;42.490;26.012;2022-11-20T05:28:27;17.02;;;3.90;;
19776;SDS011;10047;42.490;26.012;2022-11-20T05:30:54;12.05;;;3.25;;
19776;SDS011;10047;42.490;26.012;2022-11-20T05:33:19;16.02;;;3.95;;
19776;SDS011;10047;42.490;26.012;2022-11-20T05:35:45;13.60;;;3.78;;
19776;SDS011;10047;42.490;26.012;2022-11-20T05:38:11;10.93;;;3.75;;
19776;SDS011;10047;42.490;26.012;2022-11-20T05:40:36;13.18;;;4.03;;
19776;SDS011;10047;42.490;26.012;2022-11-20T05:43:02;9.70;;;4.00;;
19776;SDS011;10047;42.490;26.012;2022-11-20T05:45:28;12.63;;;3.80;;
19776;SDS011;10047;42.490;26.012;2022-11-20T05:47:53;13.57;;;3.63;;
19776;SDS011;10047;42.490;26.012;2022-11-20T05:50:23;12.88;;;3.85;;
19776;SDS011;10047;42.490;26.012;2022-11-20T05:52:48;15.23;;;6.20;;
19776;SDS011;10047;42.490;26.012;2022-11-20T05:55:13;19.60;;;4.97;;
19776;SDS011;10047;42.490;26.012;2022-11-20T05:57:39;19.25;;;8.63;;
19776;SDS011;10047;42.490;26.012;2022-11-20T06:00:05;19.13;;;7.13;;
19776;SDS011;10047;42.490;26.012;2022-11-20T06:02:33;18.42;;;5.47;;
19776;SDS011;10047;42.490;26.012;2022-11-20T06:04:59;20.20;;;6.70;;
19776;SDS011;10047;42.490;26.012;2022-11-20T06:07:25;16.17;;;6.35;;
19776;SDS011;10047;42.490;26.012;2022-11-20T06:09:50;18.58;;;6.68;;
19776;SDS011;10047;42.490;26.012;2022-11-20T06:12:16;17.52;;;7.32;;
19776;SDS011;10047;42.490;26.012;2022-11-20T06:14:41;19.70;;;8.00;;
19776;SDS011;10047;42.490;26.012;2022-11-20T06:17:06;16.83;;;7.15;;
19776;SDS011;10047;42.490;26.012;2022-11-20T06:19:32;13.50;;;7.00;;
19776;SDS011;10047;42.490;26.012;2022-11-20T06:21:57;16.70;;;6.43;;
19776;SDS011;10047;42.490;26.012;2022-11-20T06:24:22;17.30;;;5.47;;
19776;SDS011;10047;42.490;26.012;2022-11-20T06:26:50;16.55;;;5.80;;
19776;SDS011;10047;42.490;26.012;2022-11-20T06:29:15;14.02;;;5.32;;
19776;SDS011;10047;42.490;26.012;2022-11-20T06:31:41;13.48;;;5.07;;
19776;SDS011;10047;42.490;26.012;2022-11-20T06:34:07;14.00;;;5.45;;
19776;SDS011;10047;42.490;26.012;2022-11-20T06:36:33;14.63;;;4.80;;
19776;SDS011;10047;42.490;26.012;2022-11-20T06:38:59;17.10;;;4.95;;
19776;SDS011;10047;42.490;26.012;2022-11-20T06:41:25;10.55;;;3.72;;
19776;SDS011;10047;42.490;26.012;2022-11-20T06:43:50;12.45;;;4.53;;
19776;SDS011;10047;42.490;26.012;2022-11-20T06:46:17;14.63;;;5.03;;
19776;SDS011;10047;42.490;26.012;2022-11-20T06:48:43;13.85;;;5.15;;
19776;SDS011;10047;42.490;26.012;2022-11-20T06:51:09;17.35;;;5.80;;
19776;SDS011;10047;42.490;26.012;2022-11-20T06:53:35;13.95;;;5.57;;
19776;SDS011;10047;42.490;26.012;2022-11-20T06:56:01;15.48;;;5.10;;
19776;SDS011;10047;42.490;26.012;2022-11-20T06:58:27;14.20;;;4.53;;
19776;SDS011;10047;42.490;26.012;2022-11-20T07:00:54;13.68;;;5.57;;
19776;SDS011;10047;42.490;26.012;2022-11-20T07:03:23;15.38;;;5.38;;
19776;SDS011;10047;42.490;26.012;2022-11-20T07:05:49;14.18;;;5.32;;
19776;SDS011;10047;42.490;26.012;2022-11-20T07:08:14;16.48;;;5.60;;
19776;SDS011;10047;42.490;26.012;2022-11-20T07:10:40;16.98;;;6.63;;
19776;SDS011;10047;42.490;26.012;2022-11-20T07:13:05;17.52;;;6.10;;
19776;SDS011;10047;42.490;26.012;2022-11-20T07:15:31;20.35;;;7.30;;
19776;SDS011;10047;42.490;26.012;2022-11-20T07:18:00;22.85;;;8.23;;
19776;SDS011;10047;42.490;26.012;2022-11-20T07:20:26;16.83;;;7.90;;
19776;SDS011;10047;42.490;26.012;2022-11-20T07:22:55;20.50;;;6.60;;
19776;SDS011;10047;42.490;26.012;2022-11-20T07:25:22;19.02;;;6.88;;
19776;SDS011;10047;42.490;26.012;2022-11-20T07:27:48;16.90;;;6.25;;
19776;SDS011;10047;42.490;26.012;2022-11-20T07:30:14;19.60;;;8.30;;
19776;SDS011;10047;42.490;26.012;2022-11-20T07:32:41;21.25;;;8.25;;
19776;SDS011;10047;42.490;26.012;2022-11-20T07:35:06;15.90;;;4.97;;
19776;SDS011;10047;42.490;26.012;2022-11-20T07:37:35;15.13;;;5.72;;
19776;SDS011;10047;42.490;26.012;2022-11-20T07:40:01;15.93;;;5.18;;
19776;SDS011;10047;42.490;26.012;2022-11-20T07:42:26;14.82;;;5.22;;
19776;SDS011;10047;42.490;26.012;2022-11-20T07:44:51;14.35;;;4.75;;
19776;SDS011;10047;42.490;26.012;2022-11-20T07:47:17;15.93;;;5.03;;
19776;SDS011;10047;42.490;26.012;2022-11-20T07:49:42;16.38;;;4.93;;
19776;SDS011;10047;42.490;26.012;2022-11-20T07:52:07;17.02;;;5.03;;
19776;SDS011;10047;42.490;26.012;2022-11-20T07:54:33;12.25;;;4.70;;
19776;SDS011;10047;42.490;26.012;2022-11-20T07:56:58;16.48;;;5.55;;
19776;SDS011;10047;42.490;26.012;2022-11-20T07:59:23;17.70;;;6.30;;
19776;SDS011;10047;42.490;26.012;2022-11-20T08:01:49;16.85;;;6.55;;
19776;SDS011;10047;42.490;26.012;2022-11-20T08:04:15;14.65;;;6.75;;
19776;SDS011;10047;42.490;26.012;2022-11-20T08:06:41;16.42;;;6.15;;
19776;SDS011;10047;42.490;26.012;2022-11-20T08:09:06;15.10;;;6.43;;
19776;SDS011;10047;42.490;26.012;2022-11-20T08:11:32;13.70;;;5.00;;
19776;SDS011;10047;42.490;26.012;2022-11-20T08:14:16;19.63;;;5.53;;
19776;SDS011;10047;42.490;26.012;2022-11-20T08:16:48;20.08;;;5.22;;
19776;SDS011;10047;42.490;26.012;2022-11-20T08:19:15;14.57;;;5.13;;
19776;SDS011;10047;42.490;26.012;2022-11-20T08:21:42;13.25;;;6.32;;
19776;SDS011;10047;42.490;26.012;2022-11-20T08:24:08;21.80;;;10.00;;
19776;SDS011;10047;42.490;26.012;2022-11-20T08:26:34;21.85;;;11.85;;
19776;SDS011;10047;42.490;26.012;2022-11-20T08:29:02;18.02;;;8.52;;
19776;SDS011;10047;42.490;26.012;2022-11-20T08:31:28;18.23;;;7.63;;
19776;SDS011;10047;42.490;26.012;2022-11-20T08:33:54;18.13;;;7.63;;
19776;SDS011;10047;42.490;26.012;2022-11-20T08:36:20;18.50;;;7.60;;
19776;SDS011;10047;42.490;26.012;2022-11-20T08:38:47;18.58;;;9.40;;
19776;SDS011;10047;42.490;26.012;2022-11-20T08:41:13;23.05;;;10.43;;
19776;SDS011;10047;42.490;26.012;2022-11-20T08:43:56;17.25;;;8.98;;
19776;SDS011;10047;42.490;26.012;2022-11-20T08:46:25;24.13;;;12.82;;
19776;SDS011;10047;42.490;26.012;2022-11-20T08:48:52;18.95;;;8.23;;
19776;SDS011;10047;42.490;26.012;2022-11-20T08:51:18;19.05;;;8.98;;
19776;SDS011;10047;42.490;26.012;2022-11-20T08:53:44;16.45;;;7.43;;
19776;SDS011;10047;42.490;26.012;2022-11-20T08:56:10;16.20;;;6.07;;
19776;SDS011;10047;42.490;26.012;2022-11-20T08:58:36;19.80;;;5.93;;
19776;SDS011;10047;42.490;26.012;2022-11-20T09:01:02;25.50;;;5.85;;
19776;SDS011;10047;42.490;26.012;2022-11-20T09:03:27;16.52;;;4.90;;
19776;SDS011;10047;42.490;26.012;2022-11-20T09:05:56;22.33;;;7.32;;
19776;SDS011;10047;42.490;26.012;2022-11-20T09:08:24;18.00;;;4.70;;
19776;SDS011;10047;42.490;26.012;2022-11-20T09:10:53;13.50;;;3.63;;
19776;SDS011;10047;42.490;26.012;2022-11-20T09:13:20;14.38;;;3.83;;
19776;SDS011;10047;42.490;26.012;2022-11-20T09:15:46;14.85;;;4.57;;
19776;SDS011;10047;42.490;26.012;2022-11-20T09:18:11;18.10;;;4.75;;
19776;SDS011;10047;42.490;26.012;2022-11-20T09:20:37;22.42;;;5.78;;
19776;SDS011;10047;42.490;26.012;2022-11-20T09:23:03;17.80;;;5.97;;
19776;SDS011;10047;42.490;26.012;2022-11-20T09:25:28;28.50;;;7.57;;
19776;SDS011;10047;42.490;26.012;2022-11-20T09:27:55;16.15;;;6.65;;
19776;SDS011;10047;42.490;26.012;2022-11-20T09:30:21;19.05;;;5.22;;
19776;SDS011;10047;42.490;26.012;2022-11-20T09:32:46;19.52;;;5.20;;
19776;SDS011;10047;42.490;26.012;2022-11-20T09:35:11;18.50;;;6.57;;
19776;SDS011;10047;42.490;26.012;2022-11-20T09:37:37;18.35;;;6.68;;
19776;SDS011;10047;42.490;26.012;2022-11-20T09:40:03;20.45;;;5.93;;
19776;SDS011;10047;42.490;26.012;2022-11-20T09:55:50;19.05;;;4.00;;
19776;SDS011;10047;42.490;26.012;2022-11-20T09:58:25;22.38;;;4.40;;
19776;SDS011;10047;42.490;26.012;2022-11-20T10:00:59;18.40;;;4.70;;
19776;SDS011;10047;42.490;26.012;2022-11-20T10:03:42;17.23;;;4.05;;
19776;SDS011;10047;42.490;26.012;2022-11-20T10:06:37;16.55;;;4.20;;
19776;SDS011;10047;42.490;26.012;2022-11-20T10:09:50;18.05;;;4.40;;
19776;SDS011;10047;42.490;26.012;2022-11-20T10:17:24;18.40;;;4.75;;
19776;SDS011;10047;42.490;26.012;2022-11-20T10:25:47;23.35;;;6.15;;
19776;SDS011;10047;42.490;26.012;2022-11-20T10:30:49;24.25;;;6.18;;
19776;SDS011;10047;42.490;26.012;2022-11-20T10:33:22;25.33;;;5.40;;
19776;SDS011;10047;42.490;26.012;2022-11-20T10:38:39;18.15;;;4.57;;
19776;SDS011;10047;42.490;26.012;2022-11-20T10:41:21;24.42;;;5.22;;
19776;SDS011;10047;42.490;26.012;2022-11-20T10:47:00;26.17;;;4.75;;
19776;SDS011;10047;42.490;26.012;2022-11-20T10:49:25;20.30;;;4.53;;
19776;SDS011;10047;42.490;26.012;2022-11-20T10:54:56;19.17;;;4.50;;
19776;SDS011;10047;42.490;26.012;2022-11-20T11:00:24;25.98;;;5.78;;
19776;SDS011;10047;42.490;26.012;2022-11-20T11:02:53;23.77;;;5.30;;
19776;SDS011;10047;42.490;26.012;2022-11-20T11:07:45;25.05;;;5.53;;
19776;SDS011;10047;42.490;26.012;2022-11-20T11:10:15;29.92;;;5.40;;
19776;SDS011;10047;42.490;26.012;2022-11-20T11:12:43;28.50;;;5.63;;
19776;SDS011;10047;42.490;26.012;2022-11-20T11:15:24;28.35;;;6.30;;
19776;SDS011;10047;42.490;26.012;2022-11-20T11:17:52;32.00;;;6.73;;
19776;SDS011;10047;42.490;26.012;2022-11-20T11:20:19;26.95;;;5.90;;
19776;SDS011;10047;42.490;26.012;2022-11-20T11:25:35;29.25;;;6.53;;
19776;SDS011;10047;42.490;26.012;2022-11-20T11:28:03;30.00;;;6.13;;
19776;SDS011;10047;42.490;26.012;2022-11-20T11:30:30;30.10;;;5.28;;
19776;SDS011;10047;42.490;26.012;2022-11-20T11:33:12;29.98;;;5.72;;
19776;SDS011;10047;42.490;26.012;2022-11-20T11:35:45;32.08;;;7.13;;
19776;SDS011;10047;42.490;26.012;2022-11-20T11:38:14;36.72;;;12.27;;
19776;SDS011;10047;42.490;26.012;2022-11-20T11:40:43;35.03;;;9.10;;
19776;SDS011;10047;42.490;26.012;2022-11-20T11:43:49;29.70;;;8.05;;
19776;SDS011;10047;42.490;26.012;2022-11-20T11:48:59;31.27;;;6.63;;
19776;SDS011;10047;42.490;26.012;2022-11-20T12:00:18;26.52;;;5.60;;
19776;SDS011;10047;42.490;26.012;2022-11-20T12:05:18;27.98;;;5.28;;
19776;SDS011;10047;42.490;26.012;2022-11-20T12:08:36;33.55;;;5.80;;
19776;SDS011;10047;42.490;26.012;2022-11-20T12:16:05;26.42;;;6.05;;
19776;SDS011;10047;42.490;26.012;2022-11-20T12:18:34;24.80;;;5.45;;
19776;SDS011;10047;42.490;26.012;2022-11-20T12:21:16;25.33;;;5.10;;
19776;SDS011;10047;42.490;26.012;2022-11-20T12:27:05;32.10;;;5.82;;
19776;SDS011;10047;42.490;26.012;2022-11-20T12:43:29;44.63;;;6.60;;
19776;SDS011;10047;42.490;26.012;2022-11-20T12:46:30;32.45;;;6.10;;
19776;SDS011;10047;42.490;26.012;2022-11-20T12:51:45;26.20;;;5.78;;
19776;SDS011;10047;42.490;26.012;2022-11-20T12:57:14;31.95;;;5.45;;
19776;SDS011;10047;42.490;26.012;2022-11-20T13:03:00;26.00;;;5.78;;
19776;SDS011;10047;42.490;26.012;2022-11-20T13:05:44;31.02;;;6.22;;
19776;SDS011;10047;42.490;26.012;2022-11-20T13:08:29;34.55;;;6.00;;
19776;SDS011;10047;42.490;26.012;2022-11-20T13:19:21;37.63;;;5.72;;
19776;SDS011;10047;42.490;26.012;2022-11-20T13:21:48;32.58;;;6.03;;
19776;SDS011;10047;42.490;26.012;2022-11-20T13:26:43;34.50;;;7.65;;
19776;SDS011;10047;42.490;26.012;2022-11-20T13:29:11;30.95;;;6.88;;
19776;SDS011;10047;42.490;26.012;2022-11-20T13:31:42;36.20;;;6.68;;
19776;SDS011;10047;42.490;26.012;2022-11-20T13:34:12;35.72;;;7.30;;
19776;SDS011;10047;42.490;26.012;2022-11-20T13:36:50;36.60;;;7.32;;
19776;SDS011;10047;42.490;26.012;2022-11-20T13:39:27;32.50;;;6.40;;
19776;SDS011;10047;42.490;26.012;2022-11-20T13:42:01;31.52;;;6.70;;
19776;SDS011;10047;42.490;26.012;2022-11-20T13:44:48;28.80;;;6.55;;
19776;SDS011;10047;42.490;26.012;2022-11-20T13:47:28;31.40;;;6.10;;
19776;SDS011;10047;42.490;26.012;2022-11-20T13:49:54;36.42;;;6.32;;
19776;SDS011;10047;42.490;26.012;2022-11-20T13:58:40;34.17;;;6.20;;
19776;SDS011;10047;42.490;26.012;2022-11-20T14:01:15;37.40;;;6.88;;
19776;SDS011;10047;42.490;26.012;2022-11-20T14:03:43;31.85;;;6.32;;
19776;SDS011;10047;42.490;26.012;2022-11-20T14:06:27;37.20;;;7.90;;
19776;SDS011;10047;42.490;26.012;2022-11-20T14:08:56;35.10;;;6.80;;
19776;SDS011;10047;42.490;26.012;2022-11-20T14:11:24;40.17;;;7.93;;
19776;SDS011;10047;42.490;26.012;2022-11-20T14:16:32;37.95;;;9.07;;
19776;SDS011;10047;42.490;26.012;2022-11-20T14:21:44;51.40;;;11.60;;
19776;SDS011;10047;42.490;26.012;2022-11-20T14:24:17;37.25;;;8.40;;
19776;SDS011;10047;42.490;26.012;2022-11-20T14:26:45;38.25;;;7.45;;
19776;SDS011;10047;42.490;26.012;2022-11-20T14:29:21;42.35;;;8.70;;
19776;SDS011;10047;42.490;26.012;2022-11-20T14:31:52;42.83;;;7.65;;
19776;SDS011;10047;42.490;26.012;2022-11-20T14:34:22;46.53;;;9.90;;
19776;SDS011;10047;42.490;26.012;2022-11-20T14:39:30;47.28;;;8.00;;
19776;SDS011;10047;42.490;26.012;2022-11-20T14:41:57;46.17;;;7.72;;
19776;SDS011;10047;42.490;26.012;2022-11-20T14:44:33;38.63;;;7.38;;
19776;SDS011;10047;42.490;26.012;2022-11-20T14:47:00;48.08;;;12.02;;
19776;SDS011;10047;42.490;26.012;2022-11-20T14:49:28;45.00;;;12.13;;
19776;SDS011;10047;42.490;26.012;2022-11-20T14:52:09;49.08;;;13.00;;
19776;SDS011;10047;42.490;26.012;2022-11-20T14:54:44;44.38;;;12.23;;
19776;SDS011;10047;42.490;26.012;2022-11-20T14:57:24;38.55;;;9.30;;
19776;SDS011;10047;42.490;26.012;2022-11-20T14:59:51;45.13;;;8.35;;
19776;SDS011;10047;42.490;26.012;2022-11-20T15:02:17;41.92;;;8.15;;
19776;SDS011;10047;42.490;26.012;2022-11-20T15:04:50;39.42;;;8.55;;
19776;SDS011;10047;42.490;26.012;2022-11-20T15:12:30;43.80;;;8.55;;
19776;SDS011;10047;42.490;26.012;2022-11-20T15:14:57;40.15;;;8.23;;
19776;SDS011;10047;42.490;26.012;2022-11-20T15:17:23;38.83;;;8.48;;
19776;SDS011;10047;42.490;26.012;2022-11-20T15:19:48;45.22;;;10.50;;
19776;SDS011;10047;42.490;26.012;2022-11-20T15:22:14;41.22;;;8.02;;
19776;SDS011;10047;42.490;26.012;2022-11-20T15:24:41;39.72;;;7.35;;
19776;SDS011;10047;42.490;26.012;2022-11-20T15:27:07;38.00;;;7.53;;
19776;SDS011;10047;42.490;26.012;2022-11-20T15:29:33;38.88;;;8.02;;
19776;SDS011;10047;42.490;26.012;2022-11-20T15:31:58;44.17;;;7.43;;
19776;SDS011;10047;42.490;26.012;2022-11-20T15:34:26;43.70;;;7.90;;
19776;SDS011;10047;42.490;26.012;2022-11-20T15:36:52;44.60;;;7.57;;
19776;SDS011;10047;42.490;26.012;2022-11-20T15:39:18;43.42;;;8.60;;
19776;SDS011;10047;42.490;26.012;2022-11-20T15:41:43;43.28;;;8.25;;
19776;SDS011;10047;42.490;26.012;2022-11-20T15:44:09;41.00;;;8.80;;
19776;SDS011;10047;42.490;26.012;2022-11-20T15:46:37;45.60;;;9.93;;
19776;SDS011;10047;42.490;26.012;2022-11-20T15:49:11;43.83;;;10.07;;
19776;SDS011;10047;42.490;26.012;2022-11-20T15:51:39;40.20;;;7.93;;
19776;SDS011;10047;42.490;26.012;2022-11-20T15:54:11;42.13;;;8.68;;
19776;SDS011;10047;42.490;26.012;2022-11-20T15:56:38;50.25;;;8.90;;
19776;SDS011;10047;42.490;26.012;2022-11-20T15:59:03;45.50;;;10.90;;
19776;SDS011;10047;42.490;26.012;2022-11-20T16:01:29;44.55;;;10.38;;
19776;SDS011;10047;42.490;26.012;2022-11-20T16:03:55;38.08;;;9.15;;
19776;SDS011;10047;42.490;26.012;2022-11-20T16:06:20;42.80;;;8.23;;
19776;SDS011;10047;42.490;26.012;2022-11-20T16:08:46;45.10;;;9.05;;
19776;SDS011;10047;42.490;26.012;2022-11-20T16:11:15;40.60;;;8.02;;
19776;SDS011;10047;42.490;26.012;2022-11-20T16:13:41;46.60;;;10.23;;
19776;SDS011;10047;42.490;26.012;2022-11-20T16:16:27;42.50;;;9.40;;
19776;SDS011;10047;42.490;26.012;2022-11-20T16:18:59;48.00;;;9.82;;
19776;SDS011;10047;42.490;26.012;2022-11-20T16:21:25;42.92;;;9.20;;
19776;SDS011;10047;42.490;26.012;2022-11-20T16:24:01;44.42;;;9.55;;
19776;SDS011;10047;42.490;26.012;2022-11-20T16:26:28;47.90;;;12.00;;
19776;SDS011;10047;42.490;26.012;2022-11-20T16:28:54;44.08;;;9.85;;
19776;SDS011;10047;42.490;26.012;2022-11-20T16:31:21;43.75;;;11.35;;
19776;SDS011;10047;42.490;26.012;2022-11-20T16:33:50;53.17;;;11.15;;
19776;SDS011;10047;42.490;26.012;2022-11-20T16:36:20;52.38;;;10.27;;
19776;SDS011;10047;42.490;26.012;2022-11-20T16:38:51;53.53;;;10.55;;